Tiempo atmosférico en la estación meteorológica de Menorca Aeropuerto, Illes Balears (91 m.)



Fecha
DESCASC
Temp. máxima en grados centígrados (hora)
DESCASC
Temp. mínima en grados centígrados (hora)
DESCASC
Temp. media en grados centígrados
DESCASC
Racha de viento máxima en m/sg (hora)
DESCASC
Velocidad máxima media en intervalos de 10 minutos(hora)
DESCASC
Precipitaciones diarias en mm
DESCASC
Precipitaciones de 00:00 a 06:00 en mm
DESCASC
Precipitaciones de 06:00 a 12:00 en mm
DESCASC
Precipitaciones de 12:00 a 18:00 en mm
DESCASC
Precipitaciones de 18:00 a 24:00 en mm
DESCASC

Gráficas

Temp. máximas Temp. mínimas Temp. medias Precipitaciones Rachas de viento máximas Velocidades máximas media en intervalos de 10 minutos

Datos horarios

Fecha y hora oficial Temperatura (ºC) Velocidad del viento (km/h) Dirección del viento Racha (km/h) Dirección de racha Precipitación (mm) Presión (hPa) Tendencia (hPa) Humedad (%)
2019-07-19 23:00:00 24 10 Este 32 Sudeste 0 1006.1 0.4 74
2019-07-19 22:00:00 24.3 11 Este 32 Este 0 1005.8 -0.2 72
2019-07-19 21:00:00 25.2 14 Sudeste 35 Sudeste 0 1005.7 -0.5 68
2019-07-19 20:00:00 26.7 15 Sudeste 37 Este 0 1005.7 -0.8 59
2019-07-19 19:00:00 27.6 17 Sudeste 32 Sudeste 0 1006 -0.8 55
2019-07-19 18:00:00 28.2 17 Sudeste 30 Sur 0 1006.2 -1 54
2019-07-19 17:00:00 28.9 18 Sur 28 Sur 0 1006.5 -1 51
2019-07-19 16:00:00 28.9 15 Sur 30 Sur 0 1006.8 -0.8 53
2019-07-19 15:00:00 29 17 Sudeste 41 Sur 0 1007.2 -0.4 53
2019-07-19 14:00:00 29 19 Sudeste 35 Este 0 1007.5 -0.1 53
2019-07-19 13:00:00 29.1 18 Sudeste 41 Sudeste 0 1007.6 0.2 51
2019-07-19 12:00:00 28.7 12 Este 30 Sudeste 0 1007.6 0.5 51
2019-07-19 11:00:00 28.3 14 Este 28 Este 0 1007.6 0.9 54
2019-07-19 10:00:00 27.8 11 Este 21 Este 0 1007.4 1.1 58
2019-07-19 09:00:00 26.3 10 Nordeste 18 Este 0 1007.1 0.9 67
2019-07-19 08:00:00 24.4 8 Nordeste 15 Nordeste 0 1006.7 0.4 78
2019-07-19 07:00:00 21.9 11 Nordeste 11 Nordeste 0 1006.3 0 85
2019-07-19 06:00:00 20.8 8 Nordeste 11 Nordeste 0 1006.2 -0.4 86
2019-07-19 05:00:00 20.7 5 Nordeste 8 Nordeste 0 1006.3 -0.5 85
2019-07-19 04:00:00 22.2 8 Nordeste -- -- 0 1006.3 -0.5 83
2019-07-19 03:00:00 22.6 7 Nordeste 9 Nordeste 0 1006.6 0.1 81
2019-07-19 02:00:00 22.6 7 Este 11 Este 0 1006.8 0.3 79
2019-07-19 01:00:00 22.9 8 Este 13 Este 0 1006.8 0.9 77
2019-07-19 00:00:00 23.2 7 Nordeste 13 Este 0 1006.5 1.1 74
2019-07-18 23:00:00 23.5 7 Este 13 Este 0 1006.5 1.2 73
2019-07-18 22:00:00 23.8 8 Este 17 Este 0 1005.9 0.7 71
2019-07-18 21:00:00 24.8 9 Este 18 Este 0 1005.4 -0.2 66
2019-07-18 20:00:00 26 12 Este 18 Nordeste 0 1005.3 -0.2 62
2019-07-18 19:00:00 25.9 8 Este 18 Sudeste 0 1005.2 -0.1 63
2019-07-18 18:00:00 26.1 10 Nordeste 21 Nordeste 0 1005.6 0 61
2019-07-18 17:00:00 29.3 12 Sur 30 Sudeste 0 1005.5 0.3 52
2019-07-18 16:00:00 29 17 Sur 30 Sur 0 1005.3 0.1 53
2019-07-18 15:00:00 27.8 15 Sur 30 Sudoeste 0 1005.6 0.3 51
2019-07-18 14:00:00 30 15 Sur 28 Sur 0 1005.2 0.2 46
2019-07-18 13:00:00 29.7 11 Sur 22 Sur 0 1005.2 0.3 51
2019-07-18 12:00:00 29.8 8 Nordeste 28 Norte 0 1005.3 0.7 42
2019-07-18 11:00:00 28.9 14 Norte 26 Norte 0 1005 0.5 43
2019-07-18 10:00:00 28.1 13 Nordeste 26 Nordeste 0 1004.9 0.6 50
2019-07-18 09:00:00 26.6 9 Norte 17 Noroeste 0 1004.6 0.9 63
2019-07-18 08:00:00 24.5 7 Oeste 13 Oeste 0 1004.5 1 72
2019-07-18 07:00:00 22 10 Noroeste 13 Noroeste 0 1004.3 0.9 79
2019-07-18 06:00:00 22.2 9 Noroeste 17 Noroeste 0 1003.7 0.1 78
2019-07-18 05:00:00 22.2 10 Noroeste 15 Noroeste 0 1003.5 -0.3 75
2019-07-18 04:00:00 21.5 8 Oeste 13 Oeste 0 1003.4 -0.5 77
2019-07-18 03:00:00 20.9 9 Noroeste 11 Noroeste 0 1003.6 -0.7 75
2019-07-18 02:00:00 20.8 7 Oeste 9 Oeste 0 1003.8 -0.7 68
2019-07-18 01:00:00 20.7 3 Sur 8 Sur 0 1003.9 -0.6 66
2019-07-18 00:00:00 21.7 0 Calma 9 Norte 0 1004.3 0.3 65
2019-07-17 23:00:00 23 8 Norte 9 Norte 0 1004.5 1.3 62
2019-07-17 22:00:00 23.8 5 Noroeste 9 Norte 0 1004.5 1.2 58
2019-07-17 21:00:00 25.5 5 Este 13 Sudeste 0 1004 0.4 50
2019-07-17 20:00:00 26.2 10 Sudeste 18 Sur 0 1003.2 -1 53
2019-07-17 19:00:00 27.7 14 Sur 24 Sur 0 1003.3 -1.2 47
2019-07-17 18:00:00 28.4 12 Sur 24 Sur 0 1003.6 -1.2 42
2019-07-17 17:00:00 28.8 14 Sur 24 Sur 0 1004.2 -0.9 39
2019-07-17 16:00:00 28.9 15 Sur 24 Sur 0 1004.5 -- 41
2019-07-17 15:00:00 28.6 15 Sur 24 Sur 0 1004.8 -0.5 42
2019-07-17 14:00:00 28.4 13 Sur 22 Sur 0 1005.1 -0.2 45
2019-07-17 13:00:00 28.5 13 Sur 24 Sur 0 -- -- 41
2019-07-17 12:00:00 27.2 14 Sur 24 Sur 0 1005.3 -0.2 48
2019-07-17 11:00:00 27.6 14 Sur 22 Sur 0 1005.3 0.2 52
2019-07-17 10:00:00 26.7 7 Sudoeste 18 Sudoeste 0 1005.3 0.5 59
2019-07-17 09:00:00 25.7 5 Oeste 13 Oeste 0 1005.5 1 60
2019-07-17 08:00:00 22.2 5 Oeste 9 Oeste 0 1005.1 0.5 80
2019-07-17 07:00:00 17.3 6 Oeste -- -- 0 1004.8 -0.2 83
2019-07-17 06:00:00 18 0 Calma 4 Sudoeste 0 1004.5 -1.1 87
2019-07-17 05:00:00 18.2 0 Calma 5 Sudoeste 0 1004.6 -1.4 84
2019-07-17 04:00:00 18.3 2 Sudoeste 5 Sudoeste 0 1005 -1.3 81
2019-07-17 03:00:00 19.1 5 Sudoeste 9 Oeste 0 1005.6 -0.6 81
2019-07-17 02:00:00 19.6 -- -- -- -- 0 1006 -0.2 79
2019-07-17 01:00:00 21.1 7 Oeste 11 Oeste 0 1006.3 0.2 76
2019-07-17 00:00:00 21.6 9 Oeste 11 Oeste 0 1006.2 -- 71
2019-07-16 23:00:00 22.3 8 Noroeste 9 Noroeste 0 1006.2 0.3 63
2019-07-16 22:00:00 23 -- -- -- -- 0 1006.1 0.5 55
2019-07-16 21:00:00 25.1 10 Norte 15 Norte 0 -- -- 45
2019-07-16 20:00:00 27.3 12 Norte 24 Nordeste 0 1005.9 -0.2 34
2019-07-16 19:00:00 28.3 16 Norte 30 Nordeste 0 1005.6 -0.8 33
2019-07-16 18:00:00 29 19 Norte 32 Norte 0 1005.9 -0.5 29
2019-07-16 17:00:00 29.3 21 Norte 33 Norte 0 1006.1 -0.4 29
2019-07-16 16:00:00 29.3 22 Norte 37 Norte 0 1006.4 -0.1 31
2019-07-16 15:00:00 29.5 23 Norte 35 Norte 0 1006.4 0 33
2019-07-16 14:00:00 29 24 Norte 39 Norte 0 1006.5 0.5 32
2019-07-16 13:00:00 28.5 24 Norte 37 Norte 0 1006.5 0.9 34
2019-07-16 12:00:00 28.2 21 Norte 37 Norte 0 1006.4 1 40
2019-07-16 11:00:00 27.4 22 Norte 37 Norte 0 1006 1.1 44
2019-07-16 10:00:00 26.9 23 Norte 37 Noroeste 0 1005.6 0.9 43
2019-07-16 09:00:00 26.1 23 Norte 37 Norte 0 1005.4 0.9 47
2019-07-16 08:00:00 24.9 21 Norte 30 Norte 0 1004.9 0.7 51
2019-07-16 07:00:00 21.9 11 Norte 17 Norte 0 1004.7 0.4 65
2019-07-16 06:00:00 21.3 10 Norte 18 Norte 0 1004.5 0.2 64
2019-07-16 05:00:00 21.1 11 Norte 15 Norte 0 1004.2 0 65
2019-07-16 04:00:00 21.5 13 Noroeste 18 Noroeste 0 1004.3 0.1 66
2019-07-16 03:00:00 21 9 Noroeste 17 Noroeste 0 1004.3 0.3 66
2019-07-16 02:00:00 20.6 8 Noroeste 13 Noroeste 0 1004.2 0.5 65
2019-07-16 01:00:00 20.8 8 Oeste 13 Noroeste 0 1004.2 0.9 61
2019-07-16 00:00:00 20.8 10 Oeste 11 Oeste 0 1004 1.3 60
2019-07-15 23:00:00 21.6 10 Noroeste 11 Oeste 0 1003.7 1.3 57
2019-07-15 22:00:00 23.4 8 Norte 18 Norte 0 1003.3 1.2 51
2019-07-15 21:00:00 25.2 14 Norte 32 Norte 0 1002.7 0.7 46
2019-07-15 20:00:00 25.8 22 Norte 33 Norte 0 1002.4 0.5 44
2019-07-15 19:00:00 26.3 24 Nordeste 37 Norte 0 1002.1 0.3 42
2019-07-15 18:00:00 26 28 Nordeste 37 Norte 0 1002 0.5 41
2019-07-15 17:00:00 26.7 23 Nordeste 39 Norte 0 1001.9 0.4 43
2019-07-15 16:00:00 28.2 26 Norte 41 Norte 0 1001.8 0.2 33
2019-07-15 15:00:00 27.6 19 Nordeste 35 Nordeste 0 1001.5 -0.2 40
2019-07-15 14:00:00 28.5 22 Norte 42 Norte 0 1001.5 0.1 33
2019-07-15 13:00:00 28.4 23 Norte 37 Norte 0 1001.6 0.3 38
2019-07-15 12:00:00 28.7 25 Norte 37 Norte 0 1001.7 0.5 34
2019-07-15 11:00:00 27.9 17 Norte 30 Norte 0 1001.4 0.5 41
2019-07-15 10:00:00 26.8 21 Norte 37 Norte 0 1001.3 0.7 48
2019-07-15 09:00:00 27 23 Norte 32 Norte 0 1001.2 1.2 49
2019-07-15 08:00:00 24.6 14 Norte 24 Noroeste 0 1000.9 0.7 69
2019-07-15 07:00:00 23 13 Noroeste 18 Noroeste 0 1000.6 0.4 66
2019-07-15 06:00:00 22.1 9 Norte 15 Norte 0 1000 -0.4 64
2019-07-15 05:00:00 22.7 11 Norte 17 Norte 0 1000.2 -0.5 63
2019-07-15 04:00:00 22.1 12 Noroeste 21 Oeste 0 1000.2 -0.5 72
2019-07-15 03:00:00 22.5 14 Noroeste 22 Noroeste 0 1000.4 -0.3 75
2019-07-15 02:00:00 22 12 Oeste 18 Oeste 0 1000.7 0 71
2019-07-15 01:00:00 22 8 Oeste 17 Oeste 0 1000.7 0.4 67
2019-07-15 00:00:00 22.8 12 Oeste 15 Oeste 0 1000.7 0.9 63
2019-07-14 23:00:00 23.2 6 Noroeste 17 Norte 0 1000.7 1.1 60
2019-07-14 22:00:00 24.2 14 Norte 26 Norte 0 1000.3 1 59
2019-07-14 21:00:00 25.7 17 Norte 28 Norte 0 999.8 0.7 52
2019-07-14 20:00:00 26.5 17 Norte 28 Norte 0 999.6 0.6 47
2019-07-14 19:00:00 27.7 17 Norte 33 Nordeste 0 999.3 0.2 45
2019-07-14 18:00:00 29 21 Nordeste 33 Nordeste 0 999.1 -0.6 32
2019-07-14 17:00:00 29.1 19 Nordeste 33 Nordeste 0 999 -0.8 47
2019-07-14 16:00:00 29.3 17 Nordeste 30 Este 0 999.1 -1.4 51
2019-07-14 15:00:00 28.9 15 Este 26 Este 0 999.7 -0.9 44
2019-07-14 14:00:00 30.5 18 Este 30 Este 0 999.8 -0.6 38
2019-07-14 13:00:00 30.7 15 Este 28 Este 0 1000.5 -0.3 41
2019-07-14 12:00:00 29.5 13 Nordeste 26 Este 0 1000.6 -0.2 43
2019-07-14 11:00:00 28.4 18 Nordeste 30 Este 0 1000.4 -0.4 55
2019-07-14 10:00:00 27.1 17 Nordeste 28 Nordeste 0 1000.8 -0.4 65
2019-07-14 09:00:00 24.8 3 Nordeste 30 Este 0 1000.8 -0.1 81
2019-07-14 08:00:00 23.5 3 Norte 17 Oeste 0 1000.8 -0.1 85
2019-07-14 07:00:00 22.9 6 Noroeste 22 Oeste 0 1001.2 -1 85
2019-07-14 06:00:00 22.8 6 Oeste 13 Noroeste 0 1000.9 -0.6 83
2019-07-14 05:00:00 23.4 4 Sudoeste 24 Oeste 0 1000.9 -1.1 81
2019-07-14 04:00:00 23 10 Oeste 21 Sudoeste 0 1002.2 -0.5 80
2019-07-14 03:00:00 21.5 6 Sudoeste 9 Sur 0 1001.5 -1.6 78
2019-07-14 02:00:00 22.1 6 Sur 9 Sur 0 1002 -1.2 77
2019-07-14 01:00:00 22.7 9 Sur 9 Sur 0 1002.7 -0.6 72
2019-07-14 00:00:00 24.4 8 Nordeste 15 Nordeste 0 1003.1 -0.2 65
2019-07-13 23:00:00 24.9 9 Nordeste 15 Nordeste 0 1003.2 -0.3 57
2019-07-13 22:00:00 25.5 9 Nordeste 15 Este 0 1003.3 0.2 53
2019-07-13 21:00:00 26.5 8 Este 22 Este 0 1003.3 -1.1 49
2019-07-13 20:00:00 27.8 10 Nordeste 24 Nordeste 0 1003.5 -1.1 43
2019-07-13 19:00:00 28.6 20 Nordeste 30 Nordeste 0 1003.1 -1 39
2019-07-13 18:00:00 29.5 15 Nordeste 37 Nordeste 0 1004.4 0 41
2019-07-13 17:00:00 29.9 21 Nordeste 35 Nordeste 0 1004.6 -0.6 39
2019-07-13 16:00:00 30.4 25 Nordeste 39 Nordeste 0 1004.1 -1.2 38
2019-07-13 15:00:00 30 27 Nordeste 45 Nordeste 0 1004.4 -1 37
2019-07-13 14:00:00 29.4 26 Nordeste 39 Nordeste 0 1005.2 -0.2 41
2019-07-13 13:00:00 29.8 30 Norte 41 Norte 0 1005.3 -0.3 39
2019-07-13 12:00:00 30.3 27 Norte 41 Norte 0 1005.4 -0.2 39
2019-07-13 11:00:00 30.3 29 Nordeste 41 Nordeste 0 1005.4 0 37
2019-07-13 10:00:00 29.8 23 Nordeste 33 Norte 0 1005.6 0.5 40
2019-07-13 09:00:00 28.4 20 Norte 28 Norte 0 1005.6 1.1 45
2019-07-13 08:00:00 25.1 8 Norte 17 Norte 0 1005.4 0.7 62
2019-07-13 07:00:00 22.5 12 Norte 13 Norte 0 1005.1 0.6 80
2019-07-13 06:00:00 22.1 12 Noroeste -- -- 0 1004.5 -0.1 90
2019-07-13 05:00:00 22.3 11 Norte 13 Norte 0 1004.7 -0.2 91
2019-07-13 04:00:00 22.5 9 Norte 11 Norte 0 1004.5 -0.8 88
2019-07-13 03:00:00 23.5 8 Nordeste 9 Nordeste 0 1004.6 -0.7 87
2019-07-13 02:00:00 22.7 0 Calma 5 Este 0 1004.9 -0.4 85
2019-07-13 01:00:00 24.1 0 Calma 9 Sudeste 0 1005.3 0.2 85
2019-07-13 00:00:00 24.1 6 Sur 22 Sudoeste 0 1005.3 0.2 84
2019-07-12 23:00:00 24.4 7 Sudeste 26 Este 0 1005.3 0.2 80
2019-07-12 22:00:00 24.9 7 Sudeste 28 Sur 0 1005.1 0.1 76
2019-07-12 21:00:00 26.2 10 Sudeste 33 Este 0 1005.1 -- 67
2019-07-12 20:00:00 28.8 8 Sudeste 17 Sudeste 0 1005.1 -0.5 54
2019-07-12 19:00:00 29.5 8 Sur 18 Sur 0 1005 -1 47
2019-07-12 18:00:00 30.7 13 Sur 26 Este 0 -- -- 44
2019-07-12 17:00:00 31.3 9 Sudeste 35 Sudeste 0 1005.6 -1 41
2019-07-12 16:00:00 31.8 13 Sur 24 Sur 0 1006 -0.5 40
2019-07-12 15:00:00 30.9 14 Sudoeste 24 Sudoeste 0 1006.5 -0.1 42
2019-07-12 14:00:00 30.7 14 Sur 26 Sur 0 1006.6 0.1 46
2019-07-12 13:00:00 30.9 14 Sur 24 Sur 0 1006.5 0.4 48
2019-07-12 12:00:00 30.2 16 Sudoeste 24 Oeste 0 1006.6 0.8 52
2019-07-12 11:00:00 31.2 10 Nordeste 18 Noroeste 0 1006.5 1.3 33
2019-07-12 10:00:00 28.8 10 Noroeste 18 Norte 0 1006.1 1 53
2019-07-12 09:00:00 26.8 10 Oeste 18 Oeste 0 1005.8 0.7 68
2019-07-12 08:00:00 24.9 5 Oeste 11 Oeste 0 1005.2 0 77
2019-07-12 07:00:00 21.8 6 Oeste 11 Oeste 0 1005.1 -0.1 91
2019-07-12 06:00:00 20.2 9 Oeste -- -- 0 1005.1 0 90
2019-07-12 05:00:00 20.9 6 Oeste 9 Noroeste 0 1005.2 -0.1 90
2019-07-12 04:00:00 21.5 5 Oeste 9 Oeste 0 1005.2 -0.4 88
2019-07-12 03:00:00 22.4 8 Oeste 11 Oeste 0 1005.1 -0.7 85
2019-07-12 02:00:00 22.8 8 Sudoeste 13 Sudoeste 0 1005.3 -0.4 82
2019-07-12 01:00:00 22.9 10 Sudoeste 13 Sudoeste 0 1005.6 0.4 85
2019-07-12 00:00:00 22.7 4 Sudoeste 9 Sur 0 1005.8 1.1 80
2019-07-11 23:00:00 23.3 8 Sudoeste 11 Sudoeste 0 1005.7 1.1 77
2019-07-11 22:00:00 24.1 5 Sur 9 Sur 0 1005.2 0.8 77
2019-07-11 21:00:00 26.1 7 Sur 13 Sur 0 1004.7 0 68
2019-07-11 20:00:00 27.4 10 Sur 21 Sur 0 1004.6 -0.2 61
2019-07-11 19:00:00 28.2 11 Sur 21 Sur 0 1004.4 -0.5 56
2019-07-11 18:00:00 29.1 12 Sur 21 Sur 0 1004.7 -0.3 48
2019-07-11 17:00:00 29.6 13 Sur 24 Sur 0 1004.8 -0.3 46
2019-07-11 16:00:00 30.1 13 Sur 24 Sudoeste 0 1004.9 0 44
2019-07-11 15:00:00 30.6 12 Sudoeste 26 Sudoeste 0 1005 -- 42
2019-07-11 14:00:00 30.5 12 Sudoeste 24 Oeste 0 1005.1 0.2 34
2019-07-11 13:00:00 30.4 16 Sudoeste 26 Sudoeste 0 1004.9 0.1 41
2019-07-11 12:00:00 30 17 Oeste 28 Oeste 0 -- -- 45
2019-07-11 11:00:00 28.4 18 Sudoeste 26 Sudoeste 0 1004.9 0.5 57
2019-07-11 10:00:00 28.2 11 Oeste 18 Oeste 0 1004.8 0.4 59
2019-07-11 09:00:00 26.4 12 Noroeste 22 Noroeste 0 1004.7 0.5 60
2019-07-11 08:00:00 23.8 9 Oeste 13 Oeste 0 1004.4 0.3 77
2019-07-11 07:00:00 21.7 7 Noroeste 13 Noroeste 0 1004.4 0.3 91
2019-07-11 06:00:00 20.8 10 Oeste -- -- 0 1004.2 -0.1 92
2019-07-11 05:00:00 21.6 8 Oeste -- -- 0 1004.1 -0.6 92
2019-07-11 04:00:00 21.8 9 Oeste 13 Oeste 0 1004.1 -0.8 91
2019-07-11 03:00:00 21.8 9 Oeste -- -- 0 1004.3 -0.8 91
2019-07-11 02:00:00 21.5 -- -- -- -- 0 1004.7 -0.3 88
2019-07-11 01:00:00 22.2 10 Oeste 11 Oeste 0 1004.9 0.3 87
2019-07-11 00:00:00 22.8 8 Oeste 13 Sudoeste 0 1005.1 0.9 84
2019-07-10 23:00:00 23.4 8 Oeste 13 Oeste 0 1005 0.8 81
2019-07-10 22:00:00 24 10 Sudoeste 18 Sudoeste 0 1004.6 0.5 76
2019-07-10 21:00:00 25.3 13 Sudoeste 22 Sudoeste 0 1004.2 -0.2 70
2019-07-10 20:00:00 26.6 14 Sudoeste 22 Sudoeste 0 1004.2 -0.3 62
2019-07-10 19:00:00 27.5 15 Sur 24 Sur 0 1004.1 -0.4 60
2019-07-10 18:00:00 29.1 13 Sur 22 Sur 0 1004.4 -0.3 42
2019-07-10 17:00:00 29.2 15 Sur 30 Sudeste 0 1004.5 -0.4 49
2019-07-10 16:00:00 29.2 9 Sudeste 32 Oeste 0 1004.5 -0.6 42
2019-07-10 15:00:00 29.3 15 Oeste 54 Noroeste 0 1004.7 -0.3 50
2019-07-10 14:00:00 29.3 22 Oeste 35 Sudoeste 0 1004.9 0 56
2019-07-10 13:00:00 27.7 23 Oeste 37 Sudoeste 0 1005.1 0.3 61
2019-07-10 12:00:00 28.3 23 Oeste 39 Sudoeste 0 1005 0.5 58
2019-07-10 11:00:00 27.4 19 Oeste 32 Oeste 0 1004.9 1 60
2019-07-10 10:00:00 26.8 16 Oeste 26 Oeste 0 1004.8 1.1 63
2019-07-10 09:00:00 25.6 10 Oeste 17 Oeste 0 1004.5 1.1 64
2019-07-10 08:00:00 23.6 8 Oeste 13 Oeste 0 1003.9 0.7 75
2019-07-10 07:00:00 21.2 7 Oeste 11 Norte 0 1003.7 0.4 82
2019-07-10 06:00:00 21.3 7 Norte 17 Norte 0 1003.4 0.2 82
2019-07-10 05:00:00 21.8 14 Norte 22 Norte 0 1003.2 -0.2 81
2019-07-10 04:00:00 21.8 10 Norte 18 Noroeste 0 1003.3 -0.4 83
2019-07-10 03:00:00 21.9 12 Noroeste 22 Norte 0 1003.2 -0.3 84
2019-07-10 02:00:00 21.8 13 Norte 21 Norte 0 1003.4 0.2 87
2019-07-10 01:00:00 22.1 15 Norte 24 Norte 0 1003.7 1.5 87
2019-07-10 00:00:00 22.5 16 Norte 26 Norte 0 1003.5 2.2 86
2019-07-09 23:00:00 23 14 Norte 30 Norte 0 1003.2 2.3 84
2019-07-09 22:00:00 23.7 19 Norte 35 Norte 0 1002.2 1.7 83
2019-07-09 21:00:00 25.3 25 Norte 37 Norte 0 1001.3 1 76
2019-07-09 20:00:00 27.7 22 Noroeste 35 Oeste 0 1000.9 0.4 62
2019-07-09 19:00:00 28.9 22 Oeste 39 Oeste 0 1000.5 -0.1 54
2019-07-09 18:00:00 27.9 24 Oeste 35 Oeste 0 1000.3 -0.3 61
2019-07-09 17:00:00 28.3 23 Oeste 39 Sudoeste 0 1000.5 -0.3 68
2019-07-09 16:00:00 27.6 25 Sudoeste 39 Sudoeste 0 1000.6 -0.1 72
2019-07-09 15:00:00 27.2 27 Sudoeste 37 Sudoeste 0 1000.6 0 72
2019-07-09 14:00:00 27.6 23 Sudoeste 33 Sudoeste 0 1000.8 0.4 69
2019-07-09 13:00:00 27.7 24 Sudoeste 35 Sudoeste 0 1000.7 0.1 69
2019-07-09 12:00:00 27.3 22 Sudoeste 39 Sudoeste 0 1000.6 0.2 73
2019-07-09 11:00:00 27.1 27 Sudoeste 42 Sudoeste 0 1000.4 0 72
2019-07-09 10:00:00 26.1 24 Sudoeste 41 Sudoeste 0 1000.6 1 79
2019-07-09 09:00:00 27.4 24 Sur 37 Sudoeste 0 1000.4 0.7 73
2019-07-09 08:00:00 26.1 24 Sudoeste 41 Sur 0 1000.4 -1.2 79
2019-07-09 07:00:00 25.9 26 Sudeste 35 Sudeste 0 999.6 -2.3 74
2019-07-09 06:00:00 26.1 22 Este 35 Este 0 999.7 -1.6 65
2019-07-09 05:00:00 26 15 Nordeste 26 Nordeste 0 1001.6 1.1 71
2019-07-09 04:00:00 26.9 17 Norte 33 Nordeste 0 1001.9 1.2 62
2019-07-09 03:00:00 27.1 19 Nordeste 39 Este 0 1001.3 -0.2 57
2019-07-09 02:00:00 27.3 27 Este 48 Este 0 1000.5 -1.6 53
2019-07-09 01:00:00 27 32 Nordeste 52 Este 0 1000.7 0.5 54
2019-07-09 00:00:00 26 26 Este 45 Este 0 1001.5 -0.8 67
2019-07-08 23:00:00 25.8 29 Este 54 Este 0 1002.1 1.7 73
2019-07-08 22:00:00 24.9 45 Este 65 Este 0.7 1000.2 -1.5 70
2019-07-08 21:00:00 28.5 26 Nordeste 46 Nordeste 0 1002.3 -1.6 55
2019-07-08 20:00:00 28.6 28 Nordeste 42 Nordeste 0 1000.4 -3.4 56
2019-07-08 19:00:00 30.5 28 Nordeste 37 Nordeste 0 1001.7 -1.6 50
2019-07-08 18:00:00 29.8 16 Nordeste 32 Este 0 1003.9 -0.1 49
2019-07-08 17:00:00 31 16 Nordeste 26 Nordeste 0 1003.8 0.7 47
2019-07-08 16:00:00 34.5 6 Este 24 Sudeste 0 1003.3 -0.1 31
2019-07-08 15:00:00 32.7 9 Sur 30 Sudeste 0 1004 0.5 39
2019-07-08 14:00:00 34 20 Sudeste 32 Este 0 1003.1 -0.8 31
2019-07-08 13:00:00 30.2 8 Sudeste 30 Sur 0 1003.4 0.1 49
2019-07-08 12:00:00 31.4 18 Sur 30 Sudoeste 0 1003.5 1.9 49
2019-07-08 11:00:00 29.9 19 Sudoeste 30 Sudoeste 0 1003.9 1.4 58
2019-07-08 10:00:00 30.8 11 Sudoeste 28 Este 0 1003.3 0.5 51
2019-07-08 09:00:00 29.7 17 Este 33 Este 0 1001.6 -1 40
2019-07-08 08:00:00 28.8 13 Nordeste 22 Nordeste 0 1002.5 0.1 38
2019-07-08 07:00:00 28.9 12 Norte 18 Norte 0 1002.8 0.1 38
2019-07-08 06:00:00 27.7 14 Norte 24 Norte 0 1002.6 -1.1 46
2019-07-08 05:00:00 28.3 21 Norte 30 Norte 0 1002.4 -1.7 46
2019-07-08 04:00:00 28.1 15 Norte 24 Oeste 0 1002.7 -1.7 46
2019-07-08 03:00:00 26.9 11 Oeste 21 Oeste 0 1003.7 -0.4 55
2019-07-08 02:00:00 27.2 9 Oeste 28 Sudoeste 0 1004.1 0.9 57
2019-07-08 01:00:00 27 5 Norte 24 Norte 0 1004.4 1.7 59
2019-07-08 00:00:00 26.2 13 Oeste 18 Noroeste 0 1004.1 2.3 69
2019-07-07 23:00:00 26.2 10 Sudoeste 21 Oeste 0 1003.2 1.8 76
2019-07-07 22:00:00 26.8 13 Oeste 18 Oeste 0 1002.7 1.4 74
2019-07-07 21:00:00 27.5 11 Sudoeste 21 Sur 0 1001.8 -0.3 72
2019-07-07 20:00:00 29.4 14 Sur 22 Sur 0 1001.4 -1.2 60
2019-07-07 19:00:00 29.8 15 Sur 24 Sur 0 1001.3 -1.8 57
2019-07-07 18:00:00 30.6 18 Sur 28 Sur 0 1002.1 -1.2 53
2019-07-07 17:00:00 30.7 16 Sur 22 Sur 0 1002.6 -0.9 55
2019-07-07 16:00:00 31.9 17 Sur 30 Sur 0 1003.1 -0.2 49
2019-07-07 15:00:00 31.5 17 Sur 30 Sur 0 1003.3 0.3 52
2019-07-07 14:00:00 32.3 18 Sur 30 Sur 0 1003.5 0.5 50
2019-07-07 13:00:00 32.8 13 Sur 26 Sur 0 1003.3 0.5 47
2019-07-07 12:00:00 33.9 12 Oeste 26 Oeste 0 1003 0.2 39
2019-07-07 11:00:00 32.8 16 Oeste 26 Sudoeste 0 1003 0.9 42
2019-07-07 10:00:00 32.3 15 Oeste 30 Noroeste 0 1002.8 0.8 41
2019-07-07 09:00:00 29.6 6 Nordeste 17 Nordeste 0 1002.8 1 59
2019-07-07 08:00:00 28 5 Norte 11 Noroeste 0 1002.1 0.3 61
2019-07-07 07:00:00 26.5 4 Norte 22 Oeste 0 1002 -0.6 65
2019-07-07 06:00:00 26.6 15 Oeste 26 Oeste 0 1001.8 -0.6 66
2019-07-07 05:00:00 25.3 13 Oeste 22 Oeste 0 1001.8 -1.2 80
2019-07-07 04:00:00 25.2 16 Oeste 28 Oeste 0 1002.6 -0.6 90
2019-07-07 03:00:00 25 15 Oeste 30 Sudoeste 0 1002.4 -0.8 92
2019-07-07 02:00:00 25.1 15 Sudoeste 28 Sudoeste 0 1003 0 92
2019-07-07 01:00:00 25.3 11 Sudoeste 24 Sudoeste 0 1003.2 0.5 88
2019-07-07 00:00:00 25 18 Sudoeste 26 Sudoeste 0 1003.2 0.9 90
2019-07-06 23:00:00 25.2 15 Sudoeste 26 Sudoeste 0 1003 0.4 90
2019-07-06 22:00:00 25.1 13 Sudoeste 24 Sudoeste 0 1002.7 0.2 90
2019-07-06 21:00:00 25.3 15 Sudoeste 22 Sudoeste 0 1002.3 -0.9 89
2019-07-06 20:00:00 26.4 16 Sudoeste 24 Sudoeste 0 1002.6 -0.8 82
2019-07-06 19:00:00 27 19 Sudoeste 28 Sudoeste 0 1002.5 -1.1 79
2019-07-06 18:00:00 27.4 19 Sudoeste 33 Sudoeste 0 1003.2 -0.8 76
2019-07-06 17:00:00 27.7 18 Sudoeste 33 Sudoeste 0 1003.4 -0.8 73
2019-07-06 16:00:00 28.5 19 Sur 28 Sur 0 1003.6 -1 69
2019-07-06 15:00:00 28.5 16 Sudoeste 28 Sudoeste 0 1004 -0.7 69
2019-07-06 14:00:00 28.5 14 Sur 26 Sudoeste 0 1004.2 -0.3 68
2019-07-06 13:00:00 27.9 16 Sudoeste 30 Sudoeste 0 1004.6 0 70
2019-07-06 12:00:00 28.3 14 Sudoeste 24 Sudoeste 0 1004.7 0.1 68
2019-07-06 11:00:00 27.9 10 Sudoeste 21 Sudoeste 0 1004.5 -0.2 69
2019-07-06 10:00:00 26.4 9 Sudoeste 18 Sudoeste 0 1004.6 -0.1 76
2019-07-06 09:00:00 26.6 6 Sudoeste 21 Sudoeste 0 1004.6 0.3 75
2019-07-06 08:00:00 24.3 4 Sudoeste 13 Sudoeste 0 1004.7 0.5 91
2019-07-06 07:00:00 22.4 6 Sudoeste 11 Sudoeste 0 1004.7 -0.2 94
2019-07-06 06:00:00 22 0 Calma 5 Sudoeste 0 1004.3 -1.2 92
2019-07-06 05:00:00 22.8 0 Calma 11 Sudoeste 0 1004.2 -1.4 91
2019-07-06 04:00:00 24 9 Sudoeste 21 Sudoeste 0 1004.9 -0.7 91
2019-07-06 03:00:00 24.2 14 Sudoeste 21 Sudoeste 0 1005.5 -0.1 92
2019-07-06 02:00:00 24.5 14 Sur 22 Sur 0 1005.6 0 93
2019-07-06 01:00:00 24.5 13 Sur 18 Sudoeste 0 1005.6 0.4 93
2019-07-06 00:00:00 24.5 9 Sur 15 Sur 0 1005.6 0.7 93
2019-07-05 23:00:00 24.5 7 Sur 21 Sudeste 0 1005.6 0.9 91
2019-07-05 22:00:00 24.9 10 Sur 28 Este 0 1005.2 0.2 89
2019-07-05 21:00:00 26 12 Sudeste 32 Sudeste 0 1004.9 -0.7 81
2019-07-05 20:00:00 27.6 12 Sudeste 39 Sudeste 0 1004.7 -1.7 66
2019-07-05 19:00:00 28.7 15 Sudeste 35 Sudeste 0 1005 -2.1 59
2019-07-05 18:00:00 29.8 13 Sudeste 26 Este 0 1005.6 -1.6 52
2019-07-05 17:00:00 30.4 14 Sur 22 Sur 0 1006.4 -0.7 50
2019-07-05 16:00:00 30.4 14 Sur 26 Sudoeste 0 1007.1 -0.1 43
2019-07-05 15:00:00 30.8 16 Sur 28 Sur 0 1007.2 -0.3 48
2019-07-05 14:00:00 30.6 17 Sudeste 26 Sudeste 0 1007.1 -0.6 45
2019-07-05 13:00:00 30.5 16 Sur 35 Sudeste 0 1007.2 0.1 47
2019-07-05 12:00:00 30.4 16 Sur 28 Sudeste 0 1007.5 0.6 51
2019-07-05 11:00:00 29.4 13 Este 28 Sudeste 0 1007.7 1.1 55
2019-07-05 10:00:00 28.2 14 Este 26 Este 0 1007.1 0.4 66
2019-07-05 09:00:00 26.1 15 Este 22 Este 0 1006.9 0.4 80
2019-07-05 08:00:00 24.4 12 Nordeste 24 Nordeste 0 1006.6 -0.3 93
2019-07-05 07:00:00 22.8 17 Nordeste 22 Nordeste 0 1006.7 -0.4 95
2019-07-05 06:00:00 22.4 17 Norte 21 Norte 0 1006.5 -0.6 95
2019-07-05 05:00:00 22.2 9 Norte 13 Nordeste 0 1006.9 -0.3 93
2019-07-05 04:00:00 23.2 8 Nordeste 11 Nordeste 0 1007.1 -0.2 93
2019-07-05 03:00:00 23.3 8 Nordeste -- -- 0 1007.1 0 91
2019-07-05 02:00:00 23.6 9 Nordeste 13 Nordeste 0 1007.2 0.3 90
2019-07-05 01:00:00 23.6 11 Nordeste 18 Norte 0 1007.3 1.4 89
2019-07-05 00:00:00 23.9 5 Este 15 Este 0 1007.1 1.3 87
2019-07-04 23:00:00 24.5 11 Nordeste 21 Nordeste 0 1006.9 0.8 87
2019-07-04 22:00:00 25.1 13 Nordeste 21 Nordeste 0 1005.9 -0.2 84
2019-07-04 21:00:00 26 16 Nordeste 24 Este 0 1005.8 -0.3 76
2019-07-04 20:00:00 27.3 19 Este 28 Este 0 1006.1 -0.3 70
2019-07-04 19:00:00 28.3 18 Este 30 Norte 0 1006.1 -0.2 64
2019-07-04 18:00:00 29.1 20 Este 33 Nordeste 0 1006.1 -0.3 57
2019-07-04 17:00:00 29.6 19 Nordeste 30 Nordeste 0 1006.4 -0.3 56
2019-07-04 16:00:00 29.6 23 Nordeste 37 Nordeste 0 1006.3 -0.2 55
2019-07-04 15:00:00 31.2 21 Nordeste 33 Este 0 1006.4 -0.4 49
2019-07-04 14:00:00 31.8 15 Este 26 Este 0 1006.7 0.3 42
2019-07-04 13:00:00 31.1 17 Nordeste 26 Este 0 1006.5 0.6 46
2019-07-04 12:00:00 30.4 12 Nordeste 26 Este 0 1006.8 1 50
2019-07-04 11:00:00 29.7 15 Nordeste 30 Este 0 1006.4 1 51
2019-07-04 10:00:00 28.3 19 Nordeste 30 Este 0 1005.9 0.9 59
2019-07-04 09:00:00 26.7 18 Nordeste 26 Nordeste 0 1005.8 1.1 75
2019-07-04 08:00:00 25.3 13 Nordeste 21 Nordeste 0 1005.4 1 86
2019-07-04 07:00:00 23.7 11 Nordeste 15 Nordeste 0 1005 0.7 91
2019-07-04 06:00:00 22.9 10 Nordeste 18 Nordeste 0 1004.7 -0.3 91
2019-07-04 05:00:00 23 14 Nordeste 22 Nordeste 0 1004.4 -1 91
2019-07-04 04:00:00 22.8 15 Nordeste 18 Norte 0 1004.3 -1.3 90
2019-07-04 03:00:00 23.7 8 Nordeste 13 Nordeste 0 1005 -0.5 87
2019-07-04 02:00:00 23.5 6 Este 8 Este 0 1005.4 0.2 87
2019-07-04 01:00:00 23.5 3 Este 13 Este 0 1005.6 1.2 87
2019-07-04 00:00:00 23.9 5 Este 13 Este 0 1005.5 1.5 85
2019-07-03 23:00:00 24.5 5 Este 22 Este 0 1005.2 1.3 84
2019-07-03 22:00:00 25 9 Nordeste 22 Este 0 1004.4 0.2 81
2019-07-03 21:00:00 26.5 10 Nordeste 17 Este 0 1004 -0.2 70
2019-07-03 20:00:00 28.2 12 Este 21 Este 0 1003.9 -0.5 58
2019-07-03 19:00:00 29.1 13 Este 35 Este 0 1004.2 -0.5 55
2019-07-03 18:00:00 29.7 14 Este 33 Este 0 1004.2 -1 49
2019-07-03 17:00:00 30.9 13 Este 37 Este 0 1004.4 -1.1 47
2019-07-03 16:00:00 29.7 11 Sudoeste 26 Sur 0 1004.7 -- 59
2019-07-03 15:00:00 31.4 10 Sur 26 Este 0 1005.2 -0.2 46
2019-07-03 14:00:00 31.1 11 Este 26 Este 0 1005.5 0.3 41
2019-07-03 13:00:00 30.7 10 Este 26 Este 0 -- -- 45
2019-07-03 12:00:00 30 11 Este 22 Este 0 1005.4 0.6 51
2019-07-03 11:00:00 29.5 10 Nordeste 22 Nordeste 0 1005.2 0.7 46
2019-07-03 10:00:00 27.2 8 Nordeste 21 Este 0 1004.9 0.4 63
2019-07-03 09:00:00 23.8 10 Nordeste 18 Nordeste 0 1004.8 0.4 93
2019-07-03 08:00:00 24 10 Nordeste 15 Norte 0 1004.5 0.3 94
2019-07-03 07:00:00 20.8 4 Nordeste 8 Nordeste 0 1004.5 0.3 97
2019-07-03 06:00:00 20.5 0 Calma 5 Nordeste 0 1004.4 0.2 97
2019-07-03 05:00:00 21.8 2 Este 9 Este 0 1004.2 -0.6 97
2019-07-03 04:00:00 22.5 6 Nordeste 15 Nordeste 0 1004.2 -1 97
2019-07-03 03:00:00 22.5 12 Nordeste 15 Este 0 1004.2 -1.1 95
2019-07-03 02:00:00 23 11 Nordeste 13 Nordeste 0 1004.8 -0.4 94
2019-07-03 01:00:00 23.2 10 Nordeste 13 Nordeste 0 1005.2 0.4 94
2019-07-03 00:00:00 23.2 10 Norte 13 Norte 0 1005.3 1.1 91
2019-07-02 23:00:00 24.1 9 Nordeste 15 Este 0 1005.2 1 90
2019-07-02 22:00:00 24.6 9 Este 21 Este 0 1004.8 0.7 85
2019-07-02 21:00:00 26.1 12 Este 22 Nordeste 0 1004.2 -0.2 70
2019-07-02 20:00:00 27.9 12 Este 22 Este 0 1004.2 -0.6 61
2019-07-02 19:00:00 29.2 10 Este 22 Este 0 1004.1 -1.2 54
2019-07-02 18:00:00 30.4 14 Este 28 Norte 0 1004.4 -1 45
2019-07-02 17:00:00 30.3 16 Este 28 Norte 0 1004.8 -0.9 45
2019-07-02 16:00:00 30.5 17 Este 33 Este 0 1005.3 -0.6 48
2019-07-02 15:00:00 31.2 17 Nordeste 30 Nordeste 0 1005.4 -0.6 36
2019-07-02 14:00:00 31.6 14 Nordeste 26 Nordeste 0 1005.7 -0.1 31
2019-07-02 13:00:00 31.1 15 Este 28 Nordeste 0 1005.9 0.1 31
2019-07-02 12:00:00 30.3 21 Nordeste 30 Este 0 1006 -0.2 31
2019-07-02 11:00:00 29.7 21 Nordeste 28 Nordeste 0 1005.8 0.1 33
2019-07-02 10:00:00 28.9 19 Nordeste 26 Nordeste 0 1005.8 0.1 41
2019-07-02 09:00:00 27.4 16 Nordeste 24 Nordeste 0 1006.2 0.5 51
2019-07-02 08:00:00 25 10 Este 18 Nordeste 0 1005.7 -0.4 81
2019-07-02 07:00:00 23.2 10 Nordeste -- -- 0 1005.7 -0.6 93
2019-07-02 06:00:00 22.8 9 Nordeste 15 Nordeste 0 1005.7 -0.9 93
2019-07-02 05:00:00 21.8 11 Norte 17 Nordeste 0 1006.1 -0.6 92
2019-07-02 04:00:00 22.3 13 Norte 15 Nordeste 0 1006.3 -0.5 88
2019-07-02 03:00:00 21.6 9 Norte 11 Norte 0 1006.6 0 85
2019-07-02 02:00:00 -- 9 Nordeste 11 Este 0 1006.7 0.3 --
2019-07-02 01:00:00 23.7 6 Este 24 Este 0 1006.8 0.5 81
2019-07-02 00:00:00 23.3 3 Sur 30 Sudeste 0 1006.6 0.6 88
2019-07-01 23:00:00 24 7 Sudeste 13 Sudeste 0 1006.4 0.2 88
2019-07-01 22:00:00 24.3 7 Sur 28 Este 0 1006.3 0.1 85
2019-07-01 21:00:00 26.1 11 Sudeste 17 Este 0 1006 -0.6 72
2019-07-01 20:00:00 28 12 Sudeste 30 Este 0 1006.2 -0.8 59
2019-07-01 19:00:00 29.3 14 Sudeste 32 Este 0 1006.2 -1.2 47
2019-07-01 18:00:00 30.2 14 Sur 24 Sur 0 1006.6 -1.1 37
2019-07-01 17:00:00 31 14 Sur 24 Sur 0 1007 -0.8 35
2019-07-01 16:00:00 31.5 15 Sur 24 Sur 0 1007.4 -0.7 32
2019-07-01 15:00:00 31.8 15 Sur 26 Sur 0 1007.7 -0.1 32
2019-07-01 14:00:00 32.4 15 Sur 24 Sur 0 1007.8 0.1 23
2019-07-01 13:00:00 32 15 Sur 39 Sudeste 0 1008.1 0.5 27
2019-07-01 12:00:00 32.1 14 Sur 30 Sudeste 0 1007.8 0.3 24
2019-07-01 11:00:00 31.1 15 Sur 32 Sur 0 1007.7 0.6 29
2019-07-01 10:00:00 30.1 14 Sudeste 22 Sudeste 0 1007.6 0.5 33
2019-07-01 09:00:00 28.2 12 Sudeste 17 Sudeste 0 1007.5 0.4 50
2019-07-01 08:00:00 25.3 8 Sudeste 21 Este 0 1007.1 0.1 77
2019-07-01 07:00:00 22.7 8 Este -- -- 0 1007.1 0.1 88
2019-07-01 06:00:00 19.8 4 Sudeste -- -- 0 1007.1 -0.2 88
2019-07-01 05:00:00 20.5 6 Sur 9 Sur 0 1007 -0.5 87
2019-07-01 04:00:00 21.9 8 Sur 9 Sur 0 1007 -0.7 89
2019-07-01 03:00:00 22.6 8 Sur 11 Sudoeste 0 1007.3 -0.2 88
2019-07-01 02:00:00 22.7 7 Sur 13 Sur 0 1007.5 0.1 82
2019-07-01 01:00:00 24.1 11 Sudeste 24 Sur 0 1007.7 0.7 79
2019-07-01 00:00:00 24 11 Sudeste 17 Sudeste 0 1007.5 0.7 83
2019-06-30 23:00:00 24.5 10 Sudeste 17 Sudeste 0 1007.4 0.6 80
2019-06-30 22:00:00 25.1 11 Sudeste 30 Sudeste 0 1007 0.3 74
2019-06-30 21:00:00 26.6 12 Sudeste 32 Este 0 1006.8 -0.4 63
2019-06-30 20:00:00 28.8 14 Sudeste 24 Este 0 1006.8 -0.6 48
2019-06-30 19:00:00 29.6 14 Sudeste 32 Este 0 1006.7 -0.8 51
2019-06-30 18:00:00 30.7 14 Este 24 Este 0 1007.2 -0.5 46
2019-06-30 17:00:00 31.8 18 Este 41 Este 0 1007.4 -- 41
2019-06-30 16:00:00 33.1 8 Sudeste 22 Este 0 1007.5 -0.2 36
2019-06-30 15:00:00 32.4 9 Este 21 Este 0 1007.7 -0.2 47
2019-06-30 14:00:00 32 10 Sur 21 Sur 0 -- -- 44
2019-06-30 13:00:00 32.4 8 Sudeste 30 Este 0 1007.7 0.4 41
2019-06-30 12:00:00 31.7 10 Sudeste 24 Sur 0 1007.9 1 35
2019-06-30 11:00:00 31.4 9 Sudoeste 15 Sudoeste 0 1007.5 1.1 30
2019-06-30 10:00:00 30.3 6 Sur 13 Sur 0 1007.3 1.1 35
2019-06-30 09:00:00 28.5 8 Sudoeste 11 Sudoeste 0 1006.9 0.8 45
2019-06-30 08:00:00 25.4 5 Oeste 11 Noroeste 0 1006.4 0.5 70
2019-06-30 07:00:00 19.6 7 Oeste 8 Oeste 0 1006.2 0.4 87
2019-06-30 06:00:00 20.2 5 Sur 9 Sur 0 1006.1 0.4 90
2019-06-30 05:00:00 20.2 6 Sudoeste 11 Sudoeste 0 1005.9 0.4 86
2019-06-30 04:00:00 20.3 5 Sudoeste 9 Noroeste 0 1005.8 0.3 84
2019-06-30 03:00:00 20.9 4 Noroeste 8 Noroeste 0 1005.7 0 83
2019-06-30 02:00:00 22.1 5 Sudeste 9 Este 0 1005.5 -0.2 77
2019-06-30 01:00:00 24.4 2 Este -- -- 0 1005.5 0.4 70
2019-06-30 00:00:00 24.9 6 Nordeste 17 Sudeste 0 1005.7 0.7 76
2019-06-29 23:00:00 25 8 Este 17 Este 0 1005.7 0.7 73
2019-06-29 22:00:00 26 6 Este 17 Este 0 1005.1 0.3 71
2019-06-29 21:00:00 28.1 8 Nordeste 39 Este 0 1005 0.4 55
2019-06-29 20:00:00 30.9 11 Este 17 Sudoeste 0 1005 0 40
2019-06-29 19:00:00 31.5 9 Oeste 24 Sudoeste 0 1004.8 -0.4 35
2019-06-29 18:00:00 31.9 14 Sudoeste 24 Sur 0 1004.6 -0.7 32
2019-06-29 17:00:00 32.4 14 Sur 24 Sudoeste 0 1005 -0.6 34
2019-06-29 16:00:00 32.2 13 Sudoeste 26 Sudoeste 0 1005.2 -0.4 36
2019-06-29 15:00:00 32.5 14 Oeste 22 Sudoeste 0 1005.3 -0.3 33
2019-06-29 14:00:00 31.6 10 Sudoeste 21 Sudoeste 0 1005.6 0.1 36
2019-06-29 13:00:00 31.6 13 Sudoeste 22 Sudoeste 0 1005.6 0.4 35
2019-06-29 12:00:00 31.3 15 Oeste 22 Oeste 0 1005.6 0.8 35
2019-06-29 11:00:00 30 14 Sudoeste 22 Sudoeste 0 1005.5 1.1 41
2019-06-29 10:00:00 28.7 10 Oeste 21 Oeste 0 1005.2 1 47
2019-06-29 09:00:00 26.8 13 Oeste 18 Oeste 0 1004.8 0.6 64
2019-06-29 08:00:00 24.6 9 Oeste 13 Oeste 0 1004.4 -0.1 81
2019-06-29 07:00:00 22.1 9 Oeste 13 Oeste 0 1004.2 -0.5 92
2019-06-29 06:00:00 21 9 Oeste 11 Sudoeste 0 1004.2 -0.8 91
2019-06-29 05:00:00 21 10 Oeste 13 Oeste 0 1004.5 -0.7 90
2019-06-29 04:00:00 21.8 9 Oeste 13 Oeste 0 1004.7 -0.8 90
2019-06-29 03:00:00 21.7 10 Oeste 11 Oeste 0 1005 -0.7 89
2019-06-29 02:00:00 22.6 9 Oeste 15 Oeste 0 1005.2 -0.6 86
2019-06-29 01:00:00 21.9 13 Oeste -- -- 0 1005.5 0 82
2019-06-29 00:00:00 22.7 9 Oeste 13 Oeste 0 1005.7 0.3 81
2019-06-28 23:00:00 22.7 8 Sudoeste -- -- 0 1005.8 0.5 81
2019-06-28 22:00:00 24 0 Calma 11 Sudoeste 0 1005.5 0.2 73
2019-06-28 21:00:00 26.3 8 Sudoeste 13 Sudoeste 0 1005.4 -0.2 65
2019-06-28 20:00:00 28.7 9 Oeste 15 Sudoeste 0 1005.3 -0.6 53
2019-06-28 19:00:00 29.7 9 Sudoeste 18 Sur 0 1005.3 -0.7 48
2019-06-28 18:00:00 31.1 12 Sudoeste 21 Sudoeste 0 1005.6 -0.7 42
2019-06-28 17:00:00 31.1 15 Oeste 28 Sudoeste 0 1005.9 -0.7 40
2019-06-28 16:00:00 32.4 18 Oeste 28 Oeste 0 1006 -1.1 32
2019-06-28 15:00:00 32.4 19 Sudoeste 28 Sudoeste 0 1006.3 -0.8 32
2019-06-28 14:00:00 32.3 19 Oeste 28 Oeste 0 1006.6 -0.4 30
2019-06-28 13:00:00 31.9 17 Oeste 28 Sudoeste 0 1007.1 0.2 31
2019-06-28 12:00:00 31 18 Oeste 26 Oeste 0 1007.1 0.1 35
2019-06-28 11:00:00 30.4 16 Oeste 24 Oeste 0 1007 0.3 37
2019-06-28 10:00:00 29.6 15 Oeste 21 Sudoeste 0 1006.9 0.4 38
2019-06-28 09:00:00 27.1 14 Oeste 21 Oeste 0 1007 0.5 51
2019-06-28 08:00:00 23.6 11 Oeste 17 Oeste 0 1006.7 -0.1 85
2019-06-28 07:00:00 21.3 8 Oeste 13 Oeste 0 1006.5 -0.5 95
2019-06-28 06:00:00 19 9 Oeste 11 Oeste 0 1006.5 -1 94
2019-06-28 05:00:00 18.1 8 Oeste -- -- 0 1006.8 -1 92
2019-06-28 04:00:00 18.4 -- -- -- -- 0 1007 -1 91
2019-06-28 03:00:00 19.1 5 Sur 8 Sur 0 1007.5 -0.9 90
2019-06-28 02:00:00 20.2 2 Sudeste 5 Sudeste 0 1007.8 -0.8 90
2019-06-28 01:00:00 22.1 3 Este 17 Nordeste 0 1008 -0.1 90
2019-06-28 00:00:00 22.8 -- -- -- -- 0 1008.4 0.4 91
2019-06-27 23:00:00 23.1 8 Nordeste 17 Este 0 1008.6 0.8 89
2019-06-27 22:00:00 23.8 9 Este 17 Nordeste 0 1008.1 0.2 85
2019-06-27 21:00:00 25.5 13 Nordeste 21 Este 0 1008 -0.3 74
2019-06-27 20:00:00 27.9 16 Nordeste 26 Nordeste 0 1007.8 -0.9 56
2019-06-27 19:00:00 29.4 17 Nordeste 32 Nordeste 0 1007.9 -1.3 49
2019-06-27 18:00:00 30.4 18 Este 30 Este 0 1008.3 -1.1 41
2019-06-27 17:00:00 31.7 16 Nordeste 30 Nordeste 0 1008.7 -1 35
2019-06-27 16:00:00 31.8 15 Nordeste 28 Nordeste 0 1009.2 -0.9 33
2019-06-27 15:00:00 32.7 17 Nordeste 32 Nordeste 0 1009.4 -0.9 30
2019-06-27 14:00:00 32.4 18 Nordeste 28 Nordeste 0 1009.7 -0.3 31
2019-06-27 13:00:00 31.9 17 Nordeste 26 Nordeste 0 1010.1 0.2 32
2019-06-27 12:00:00 31.2 15 Nordeste 24 Este 0 1010.3 0.6 32
2019-06-27 11:00:00 30.9 16 Nordeste 24 Este 0 1010 0.5 31
2019-06-27 10:00:00 29.4 16 Nordeste 30 Nordeste 0 1009.9 0.6 37
2019-06-27 09:00:00 27.5 16 Nordeste 22 Nordeste 0 1009.7 0.5 50
2019-06-27 08:00:00 24.6 15 Nordeste 21 Nordeste 0 1009.5 0.4 69
2019-06-27 07:00:00 22.3 16 Nordeste 21 Nordeste 0 1009.3 -0.1 88
2019-06-27 06:00:00 21.4 15 Nordeste 18 Nordeste 0 1009.2 -0.4 90
2019-06-27 05:00:00 21.3 15 Este 21 Nordeste 0 1009.1 -0.8 86
2019-06-27 04:00:00 21.6 16 Nordeste 21 Nordeste 0 1009.4 -1 91
2019-06-27 03:00:00 21.7 15 Nordeste 18 Nordeste 0 1009.6 -0.8 92
2019-06-27 02:00:00 22.1 15 Nordeste 18 Nordeste 0 1009.9 -0.5 90
2019-06-27 01:00:00 22.2 15 Nordeste 21 Nordeste 0 1010.4 0.5 89
2019-06-27 00:00:00 22.6 15 Nordeste 22 Nordeste 0 1010.4 0.9 85
2019-06-26 23:00:00 22.9 12 Nordeste 24 Este 0 1010.4 1 79
2019-06-26 22:00:00 23.3 13 Nordeste 24 Este 0 1009.9 0.8 78
2019-06-26 21:00:00 24.6 15 Este 22 Este 0 1009.5 0 71
2019-06-26 20:00:00 26.7 15 Este 26 Este 0 1009.4 -0.2 60
2019-06-26 19:00:00 27.7 18 Este 32 Este 0 1009.1 -0.9 55
2019-06-26 18:00:00 28.3 22 Este 39 Norte 0 1009.5 -0.5 51
2019-06-26 17:00:00 28.8 24 Este 37 Sudeste 0 1009.6 -0.5 50
2019-06-26 16:00:00 29 26 Sudeste 42 Este 0 1010 0.1 49
2019-06-26 15:00:00 29.5 26 Este 41 Este 0 1010 0.3 48
2019-06-26 14:00:00 29.1 29 Este 46 Este 0 1010.1 0.7 50
2019-06-26 13:00:00 28.7 29 Este 45 Este 0 1009.9 0.7 52
2019-06-26 12:00:00 28.7 32 Este 48 Este 0 1009.7 0.8 52
2019-06-26 11:00:00 28.3 36 Este 48 Este 0 1009.4 0.8 51
2019-06-26 10:00:00 27.4 34 Este 48 Este 0 1009.2 0.9 56
2019-06-26 09:00:00 26 32 Este 41 Este 0 1008.9 1 64
2019-06-26 08:00:00 23.7 26 Nordeste 35 Nordeste 0 1008.6 1.2 77
2019-06-26 07:00:00 22.6 25 Nordeste 30 Nordeste 0 1008.3 1 81
2019-06-26 06:00:00 22.2 17 Este 26 Este 0 1007.9 0.1 80
2019-06-26 05:00:00 22.7 17 Este 30 Este 0 1007.4 -0.6 78
2019-06-26 04:00:00 22.9 20 Este 37 Norte 0 1007.3 -1 77
2019-06-26 03:00:00 22.7 19 Este 32 Este 0 1007.8 -0.9 79
2019-06-26 02:00:00 22.3 21 Este 30 Este 0 1008 -0.5 83
2019-06-26 01:00:00 22.3 20 Este 33 Este 0 1008.3 0.4 84
2019-06-26 00:00:00 22.4 17 Este 30 Este 0 1008.7 1 85
2019-06-25 23:00:00 22.6 19 Este 33 Sudeste 0 1008.5 1.1 83
2019-06-25 22:00:00 22.8 18 Este 35 Este 0 1007.9 0.8 81
2019-06-25 21:00:00 23.7 18 Este 35 Norte 0 1007.7 0.5 76
2019-06-25 20:00:00 25.5 19 Este 35 Este 0 1007.4 0.2 67
2019-06-25 19:00:00 26.6 23 Sudeste 37 Sudeste 0 1007.1 -0.3 59
2019-06-25 18:00:00 27.3 25 Sudeste 41 Sudeste 0 1007.2 -0.3 59
2019-06-25 17:00:00 27.4 28 Sudeste 45 Sudeste 0 1007.2 -0.3 58
2019-06-25 16:00:00 27.8 29 Sudeste 45 Sudeste 0 1007.4 -0.1 57
2019-06-25 15:00:00 28.2 32 Sudeste 46 Sudeste 0 1007.5 0.3 56
2019-06-25 14:00:00 28 29 Sudeste 45 Sudeste 0 1007.5 0.5 59
2019-06-25 13:00:00 27.5 31 Sudeste 46 Sudeste 0 1007.5 0.6 62
2019-06-25 12:00:00 27.1 30 Sudeste 45 Sudeste 0 1007.2 0.7 63
2019-06-25 11:00:00 26.1 30 Este 42 Sudeste 0 1007 1.1 67
2019-06-25 10:00:00 25.3 24 Este 37 Este 0 1006.9 1.3 70
2019-06-25 09:00:00 24.1 18 Este 30 Este 0 1006.5 1.3 78
2019-06-25 08:00:00 22.3 13 Nordeste 18 Norte 0 1005.9 0.9 90
2019-06-25 07:00:00 20.2 11 Este 15 Este 0 1005.6 0.4 95
2019-06-25 06:00:00 19.8 11 Este 13 Este 0 1005.2 0 94
2019-06-25 05:00:00 20.1 10 Este 13 Norte 0 1005 -0.3 93
2019-06-25 04:00:00 20.6 8 Este 15 Sudeste 0 1005.2 -0.1 92
2019-06-25 03:00:00 20.8 10 Sudeste 18 Sudeste 0 1005.2 -0.4 92
2019-06-25 02:00:00 21.3 13 Sudeste 24 Sudeste 0 1005.3 0.1 91
2019-06-25 01:00:00 21.5 16 Sudeste 35 Sudeste 0 1005.3 0.5 91
2019-06-25 00:00:00 21.7 17 Sudeste 32 Sudeste 0 1005.6 1.5 89
2019-06-24 23:00:00 21.9 23 Sudeste 39 Este 0 1005.2 1.2 88
2019-06-24 22:00:00 22.2 20 Este 32 Sudeste 0 1004.8 0.9 87
2019-06-24 21:00:00 22.8 22 Este 42 Este 0 1004.1 0.1 84
2019-06-24 20:00:00 23.7 23 Este 37 Este 0 1004 -0.1 79
2019-06-24 19:00:00 24.6 23 Sudeste 35 Sudeste 0 1003.9 -0.4 76
2019-06-24 18:00:00 25.9 23 Sudeste 39 Sudeste 0 1004 -0.3 71
2019-06-24 17:00:00 26.4 24 Sudeste 42 Este 0 1004.1 -0.5 67
2019-06-24 16:00:00 27 28 Sudeste 46 Sudeste 0 1004.3 -0.9 62
2019-06-24 15:00:00 27.4 31 Este 52 Este 0 1004.3 -0.9 56
2019-06-24 14:00:00 27.4 32 Este 50 Norte 0 1004.6 -0.2 55
2019-06-24 13:00:00 27.3 28 Este 50 Este 0 1005.2 0.9 53
2019-06-24 12:00:00 27.4 28 Este 41 Sudeste 0 1005.2 1.2 50
2019-06-24 11:00:00 27.3 26 Este 39 Este 0 1004.8 1.1 49
2019-06-24 10:00:00 25.9 27 Nordeste 39 Norte 0 1004.3 0.7 58
2019-06-24 09:00:00 24.1 28 Nordeste 42 Este 0 1004 0.5 66
2019-06-24 08:00:00 22.2 24 Este 37 Nordeste 0 1003.7 -0.2 76
2019-06-24 07:00:00 20.8 24 Este 35 Nordeste 0 1003.6 -1 87
2019-06-24 06:00:00 20.7 26 Nordeste 37 Nordeste 0 1003.5 -2 87
2019-06-24 05:00:00 20.5 22 Nordeste 30 Nordeste 0 1003.9 -1.6 88
2019-06-24 04:00:00 20.2 18 Nordeste 26 Este 0 1004.6 -0.8 88
2019-06-24 03:00:00 20 14 Nordeste 21 Este 0 1005.5 -0.1 89
2019-06-24 02:00:00 20.2 15 Nordeste 21 Nordeste 0 1005.5 0 88
2019-06-24 01:00:00 20.3 16 Nordeste 21 Nordeste 0 1005.4 0.7 87
2019-06-24 00:00:00 20.7 15 Nordeste 26 Nordeste 0 1005.6 1.1 83
2019-06-23 23:00:00 21 16 Nordeste 24 Nordeste 0 1005.5 0.9 82
2019-06-23 22:00:00 21.4 15 Este 26 Este 0 1004.7 0.2 77
2019-06-23 21:00:00 22.6 18 Este 33 Nordeste 0 1004.5 -0.3 68
2019-06-23 20:00:00 24.2 22 Este 32 Este 0 1004.6 -0.6 55
2019-06-23 19:00:00 25.7 21 Este 32 Este 0 1004.5 -0.9 49
2019-06-23 18:00:00 26.1 24 Este 37 Nordeste 0 1004.8 -0.8 46
2019-06-23 17:00:00 26.5 22 Este 32 Este 0 1005.2 -0.6 47
2019-06-23 16:00:00 26.6 24 Este 37 Norte 0 1005.4 -0.5 49
2019-06-23 15:00:00 27.1 22 Este 32 Este 0 1005.6 -0.1 50
2019-06-23 14:00:00 26.9 22 Este 41 Este 0 1005.8 0.2 48
2019-06-23 13:00:00 27.4 20 Nordeste 33 Nordeste 0 1005.9 0.3 43
2019-06-23 12:00:00 26.7 18 Nordeste 32 Nordeste 0 1005.7 0.1 45
2019-06-23 11:00:00 25.6 18 Nordeste 32 Este 0 1005.6 0.5 52
2019-06-23 10:00:00 24.7 17 Nordeste 30 Este 0 1005.6 0.7 58
2019-06-23 09:00:00 23.2 14 Este 22 Este 0 1005.6 0.6 69
2019-06-23 08:00:00 20.9 12 Nordeste 18 Nordeste 0 1005.1 0.1 83
2019-06-23 07:00:00 18.5 10 Nordeste 18 Norte 0 1004.9 -0.5 94
2019-06-23 06:00:00 16.5 8 Nordeste 9 Nordeste 0 1005 -0.7 93
2019-06-23 05:00:00 17.4 9 Este 9 Este 0 1005 -0.6 93
2019-06-23 04:00:00 -- -- -- -- -- 0 1005.4 -0.4 --
2019-06-23 03:00:00 18.2 4 Este 17 Nordeste 0 1005.7 -0.1 88
2019-06-23 02:00:00 19.1 13 Nordeste 21 Nordeste 0 1005.6 -0.2 88
2019-06-23 01:00:00 19 13 Nordeste 18 Nordeste 0 1005.8 0.1 88
2019-06-23 00:00:00 19.1 11 Nordeste 22 Nordeste 0 1005.8 0.4 86
2019-06-22 23:00:00 19.6 13 Nordeste 22 Este 0 1005.8 0.4 83
2019-06-22 22:00:00 20.1 11 Nordeste 18 Nordeste 0 1005.7 0.3 79
2019-06-22 21:00:00 21.7 12 Norte 24 Nordeste 0 1005.4 -0.3 69
2019-06-22 20:00:00 22.8 13 Nordeste 21 Nordeste 0 1005.4 -0.5 62
2019-06-22 19:00:00 22.8 14 Nordeste 22 Nordeste 0 1005.4 -0.7 65
2019-06-22 18:00:00 23.9 17 Nordeste 30 Nordeste 0 1005.7 -0.7 61
2019-06-22 17:00:00 24.7 15 Nordeste 28 Norte 0 1005.9 -0.7 55
2019-06-22 16:00:00 24.9 16 Nordeste 30 Nordeste 0 1006.1 -0.9 50
2019-06-22 15:00:00 25.4 17 Nordeste 33 Nordeste 0 1006.4 -0.6 51
2019-06-22 14:00:00 24.9 24 Nordeste 35 Nordeste 0 1006.6 -0.3 51
2019-06-22 13:00:00 24.4 23 Nordeste 35 Norte 0 1007 0.4 56
2019-06-22 12:00:00 24 27 Norte 35 Norte 0 1007 1 59
2019-06-22 11:00:00 23.2 26 Norte 42 Nordeste 0 1006.9 1.4 63
2019-06-22 10:00:00 22.5 25 Nordeste 37 Nordeste 0 1006.6 1.4 67
2019-06-22 09:00:00 21.7 30 Nordeste 45 Norte 0 1006 1.1 72
2019-06-22 08:00:00 20.4 33 Norte 45 Norte 0 1005.5 0.5 78
2019-06-22 07:00:00 18.8 30 Norte 41 Norte 0 1005.2 0.1 86
2019-06-22 06:00:00 18.6 27 Norte 37 Norte 0 1004.9 -0.2 89
2019-06-22 05:00:00 18.7 25 Norte 37 Norte 0 1005 -0.5 91
2019-06-22 04:00:00 18.5 22 Norte 30 Norte 0 1005.1 -0.3 90
2019-06-22 03:00:00 18.5 19 Norte 28 Norte 0 1005.1 -0.1 90
2019-06-22 02:00:00 18.6 17 Norte 21 Norte 0 1005.5 0.7 91
2019-06-22 01:00:00 18.5 13 Norte 17 Norte 0 1005.4 0.9 90
2019-06-22 00:00:00 19 4 Noroeste 9 Nordeste 0 1005.2 1.2 87
2019-06-21 23:00:00 20.1 5 Este 15 Este 0 1004.8 1.3 86
2019-06-21 22:00:00 20.4 7 Nordeste 17 Nordeste 0 1004.5 1.4 85
2019-06-21 21:00:00 20.9 14 Norte 24 Nordeste 0 1004 0.8 81
2019-06-21 20:00:00 22.1 17 Nordeste 33 Nordeste 0 1003.5 -0.1 77
2019-06-21 19:00:00 23 18 Nordeste 33 Nordeste 0 1003.1 -0.5 73
2019-06-21 18:00:00 24.2 14 Nordeste 28 Este 0 1003.2 -0.7 69
2019-06-21 17:00:00 23.7 14 Este 30 Este 0 1003.6 -0.5 72
2019-06-21 16:00:00 24.8 15 Nordeste 22 Norte 0 1003.6 -0.7 68
2019-06-21 15:00:00 25.2 13 Oeste 28 Oeste 0 1003.9 -0.1 64
2019-06-21 14:00:00 24.8 16 Oeste 26 Sudoeste 0 1004.1 -0.3 65
2019-06-21 13:00:00 25 13 Sur 32 Este 0 1004.3 0.6 64
2019-06-21 12:00:00 24.5 8 Sudeste 35 Norte 0 1004 0 67
2019-06-21 11:00:00 22.8 9 Sudeste 33 Sur 0 1004.4 1.2 76
2019-06-21 10:00:00 23.6 8 Este 15 Norte 0 1003.7 1 69
2019-06-21 09:00:00 22.8 10 Este 28 Este 0 1004 1.1 76
2019-06-21 08:00:00 21.1 11 Nordeste 21 Norte 0 1003.2 0.5 89
2019-06-21 07:00:00 19.8 10 Nordeste 17 Nordeste 0 1002.7 0 93
2019-06-21 06:00:00 18.8 9 Norte 17 Nordeste 0 1002.9 -0.1 95
2019-06-21 05:00:00 18.9 12 Norte 15 Norte 0 1002.7 -0.7 94
2019-06-21 04:00:00 19.3 5 Norte 18 Norte 0 1002.7 -0.7 93
2019-06-21 03:00:00 19.7 6 Norte 11 Nordeste 0 1003 -0.6 91
2019-06-21 02:00:00 19.2 7 Norte 8 Norte 0 1003.4 -0.5 89
2019-06-21 01:00:00 20.8 2 Este 21 Sudeste 0 1003.4 0.1 88
2019-06-21 00:00:00 20.7 5 Sudeste 8 Sudeste 0 1003.6 1.3 87
2019-06-20 23:00:00 21.1 7 Sudeste 11 Sudeste 0 1003.9 1.9 86
2019-06-20 22:00:00 21 6 Sudeste 21 Sudeste 0 1003.3 1.2 85
2019-06-20 21:00:00 21.5 9 Sudeste 17 Sur 0 1002.3 -0.1 82
2019-06-20 20:00:00 23.2 9 Sur 21 Sudeste 0 1002 -0.9 74
2019-06-20 19:00:00 23.3 10 Sur 18 Sur 0 1002.1 -1.2 72
2019-06-20 18:00:00 24.6 11 Sur 28 Sudeste 0 1002.4 -1.2 66
2019-06-20 17:00:00 25.1 10 Sur 22 Sudoeste 0 1002.9 -1 64
2019-06-20 16:00:00 25 15 Sur 26 Sur 0 1003.3 -0.9 65
2019-06-20 15:00:00 25.8 17 Sur 26 Sur 0 1003.6 -0.7 62
2019-06-20 14:00:00 25.7 12 Sudeste 28 Sudeste 0 1003.9 0.4 61
2019-06-20 13:00:00 25.3 14 Este 33 Este 0 1004.2 0.9 61
2019-06-20 12:00:00 22.9 17 Este 30 Este 0 1004.3 1.4 74
2019-06-20 11:00:00 24.2 21 Nordeste 32 Nordeste 0 1003.5 0.8 69
2019-06-20 10:00:00 24.1 14 Nordeste 28 Norte 0 1003.3 0.5 69
2019-06-20 09:00:00 22.4 14 Norte 21 Norte 0 1002.9 0.1 77
2019-06-20 08:00:00 20.5 6 Noroeste 13 Noroeste 0 1002.7 -0.3 87
2019-06-20 07:00:00 18.7 10 Noroeste 13 Noroeste 0 1002.8 -0.1 92
2019-06-20 06:00:00 19.2 10 Oeste 17 Oeste 0 1002.8 -0.4 92
2019-06-20 05:00:00 19.3 9 Sudoeste 18 Sudoeste 0 1003 -0.3 92
2019-06-20 04:00:00 19.5 10 Sudoeste 17 Sudoeste 0 1002.9 -0.4 92
2019-06-20 03:00:00 19.9 10 Sudoeste 17 Sur 0 1003.2 -0.3 93
2019-06-20 02:00:00 19.3 12 Sur 17 Sur 0 1003.3 -0.1 93
2019-06-20 01:00:00 19.4 10 Sur 18 Sur 0 1003.3 0 91
2019-06-20 00:00:00 20.2 9 Sur 17 Sur 0 1003.5 0.4 91